Time;durP1;ratioP1;P1;durP2;ratioP2;P2;SDS_P1;SDS_P2;PMS_P1;PMS_P2;Temp;Humidity;BMP_temperature;BMP_pressure;BME280_temperature;BME280_humidity;BME280_pressure;Samples;Min_cycle;Max_cycle;Signal;HPM_P1;HPM_P2
2022/01/04 00:01:15;;;;;;;0.40;0.30;;;9.10;99.90;;;;;;5115638;28;20450;-85
2022/01/04 00:03:42;;;;;;;0.30;0.30;;;9.10;99.90;;;;;;5115436;28;20532;-85
2022/01/04 00:06:11;;;;;;;0.30;0.20;;;9.10;99.90;;;;;;5115229;28;20968;-86
2022/01/04 00:08:37;;;;;;;0.30;0.20;;;9.10;99.90;;;;;;5115680;28;20815;-86
2022/01/04 00:11:09;;;;;;;0.30;0.20;;;9.10;99.90;;;;;;5115361;28;20434;-86
2022/01/04 00:13:36;;;;;;;0.30;0.30;;;9.20;99.90;;;;;;5115459;28;20888;-85
2022/01/04 00:16:05;;;;;;;0.30;0.20;;;9.10;99.90;;;;;;5115025;28;20479;-85
2022/01/04 00:18:32;;;;;;;0.30;0.30;;;9.10;99.90;;;;;;5115238;28;20545;-85
2022/01/04 00:20:59;;;;;;;0.30;0.20;;;9.10;99.90;;;;;;5115198;28;20455;-85
2022/01/04 00:23:27;;;;;;;0.40;0.30;;;9.00;99.90;;;;;;5115118;28;20467;-85
2022/01/04 00:25:54;;;;;;;0.40;0.30;;;8.90;99.90;;;;;;5115060;28;20450;-85
2022/01/04 00:28:20;;;;;;;0.30;0.20;;;8.90;99.90;;;;;;5114756;28;20957;-85
2022/01/04 00:30:47;;;;;;;0.30;0.30;;;8.90;99.90;;;;;;5115100;28;20439;-85
2022/01/04 00:33:16;;;;;;;0.30;0.20;;;8.90;99.90;;;;;;5114956;28;20470;-85
2022/01/04 00:35:43;;;;;;;0.30;0.30;;;8.90;99.90;;;;;;5115011;28;20447;-85
2022/01/04 00:38:11;;;;;;;0.30;0.30;;;8.90;99.90;;;;;;5114832;28;20453;-85
2022/01/04 00:40:39;;;;;;;0.30;0.20;;;8.90;99.90;;;;;;5114858;28;20447;-85
2022/01/04 00:43:07;;;;;;;0.30;0.30;;;8.90;99.90;;;;;;5114780;28;20463;-85
2022/01/04 00:45:36;;;;;;;0.30;0.20;;;8.90;99.90;;;;;;5114615;28;20487;-84
2022/01/04 00:50:48;;;;;;;0.30;0.20;;;8.90;99.90;;;;;;5114653;28;20494;-85
2022/01/04 00:53:15;;;;;;;0.30;0.20;;;8.90;99.90;;;;;;5114571;28;20467;-85
2022/01/04 00:55:43;;;;;;;0.30;0.30;;;8.90;99.90;;;;;;5113391;28;20965;-84
2022/01/04 00:58:10;;;;;;;0.30;0.30;;;8.90;99.90;;;;;;5114482;28;20454;-85
2022/01/04 01:00:37;;;;;;;0.30;0.20;;;8.90;99.90;;;;;;5114127;28;20963;-84
2022/01/04 01:03:05;;;;;;;0.30;0.30;;;8.90;99.90;;;;;;5114516;28;20479;-86
2022/01/04 01:05:33;;;;;;;0.30;0.20;;;8.90;99.90;;;;;;5114420;28;20482;-86
2022/01/04 01:08:00;;;;;;;0.30;0.30;;;8.90;99.90;;;;;;5114581;28;20817;-86
2022/01/04 01:10:41;;;;;;;0.30;0.30;;;8.90;99.90;;;;;;5114171;28;20949;-86
2022/01/04 01:13:10;;;;;;;0.30;0.30;;;8.90;99.90;;;;;;5113961;28;20462;-85
2022/01/04 01:15:40;;;;;;;0.30;0.30;;;8.80;99.90;;;;;;5114049;28;20837;-85
2022/01/04 01:18:06;;;;;;;0.30;0.20;;;8.80;99.90;;;;;;5115056;28;20487;-86
2022/01/04 01:20:33;;;;;;;0.30;0.30;;;8.80;99.90;;;;;;5114295;28;20457;-86
2022/01/04 01:23:00;;;;;;;0.30;0.20;;;8.80;99.90;;;;;;5114236;28;20462;-86
2022/01/04 01:25:27;;;;;;;0.30;0.20;;;8.80;99.90;;;;;;5114228;28;20475;-86
2022/01/04 01:27:53;;;;;;;0.70;0.30;;;8.80;99.90;;;;;;5113942;28;20454;-86
2022/01/04 01:30:22;;;;;;;0.30;0.20;;;8.80;99.90;;;;;;5115035;28;20450;-86
2022/01/04 01:32:51;;;;;;;0.33;0.33;;;8.80;99.90;;;;;;5114207;28;20840;-86
2022/01/04 01:35:18;;;;;;;0.30;0.30;;;8.70;99.90;;;;;;5114256;28;20450;-86
2022/01/04 01:37:44;;;;;;;0.77;0.30;;;8.80;99.90;;;;;;5114241;28;20434;-87
2022/01/04 01:40:12;;;;;;;0.40;0.37;;;8.80;99.90;;;;;;5114031;28;20447;-87
2022/01/04 01:42:39;;;;;;;0.47;0.47;;;8.80;99.90;;;;;;5114040;28;20467;-86
2022/01/04 01:45:08;;;;;;;0.40;0.30;;;8.90;99.90;;;;;;5114077;28;20478;-86
2022/01/04 01:47:37;;;;;;;0.30;0.27;;;8.80;99.90;;;;;;5114095;28;20451;-87
2022/01/04 01:50:04;;;;;;;0.30;0.20;;;8.90;99.90;;;;;;5114207;28;20455;-87
2022/01/04 01:52:31;;;;;;;0.30;0.20;;;8.90;99.90;;;;;;5114016;28;20471;-86
2022/01/04 01:54:58;;;;;;;0.30;0.20;;;8.80;99.90;;;;;;5114137;28;20442;-87
2022/01/04 01:57:25;;;;;;;0.30;0.20;;;8.80;99.90;;;;;;5114139;28;20460;-86
2022/01/04 01:59:51;;;;;;;0.40;0.30;;;8.70;99.90;;;;;;5114076;28;20439;-86
2022/01/04 02:02:18;;;;;;;0.30;0.30;;;8.70;99.90;;;;;;5113970;28;20471;-86
2022/01/04 02:04:46;;;;;;;0.30;0.20;;;8.70;99.90;;;;;;5113931;28;20475;-87
2022/01/04 02:07:14;;;;;;;0.30;0.30;;;8.60;99.90;;;;;;5116040;28;20442;-87
2022/01/04 02:09:45;;;;;;;0.80;0.40;;;8.70;99.90;;;;;;5118017;28;20450;-87
2022/01/04 02:12:12;;;;;;;0.30;0.30;;;8.70;99.90;;;;;;5117890;28;20470;-87
2022/01/04 02:14:39;;;;;;;0.30;0.30;;;8.70;99.90;;;;;;5117727;28;20438;-86
2022/01/04 02:17:06;;;;;;;0.40;0.30;;;8.70;99.90;;;;;;5117492;28;20978;-85
2022/01/04 02:19:37;;;;;;;0.30;0.20;;;8.70;99.90;;;;;;5117674;28;20431;-86
2022/01/04 02:22:04;;;;;;;0.30;0.30;;;8.80;99.90;;;;;;5119683;28;20461;-86
2022/01/04 02:24:31;;;;;;;0.30;0.30;;;8.80;99.90;;;;;;5117580;28;20486;-86
2022/01/04 02:26:59;;;;;;;0.30;0.20;;;8.90;99.90;;;;;;5117741;28;20525;-86
2022/01/04 02:29:26;;;;;;;0.30;0.30;;;8.90;99.90;;;;;;5117642;28;20451;-86
2022/01/04 02:31:53;;;;;;;0.30;0.23;;;9.00;99.90;;;;;;5117433;28;20446;-86
2022/01/04 02:34:20;;;;;;;0.30;0.30;;;8.90;99.90;;;;;;5117235;28;20442;-85
2022/01/04 02:36:48;;;;;;;0.30;0.20;;;9.00;99.90;;;;;;5117153;28;20442;-86
2022/01/04 02:39:15;;;;;;;0.30;0.27;;;9.00;99.90;;;;;;5117257;28;20442;-86
2022/01/04 02:41:41;;;;;;;0.30;0.20;;;9.10;99.90;;;;;;5120055;28;20454;-86
2022/01/04 02:44:08;;;;;;;0.30;0.30;;;9.00;99.90;;;;;;5117231;28;20463;-86
2022/01/04 02:46:35;;;;;;;0.30;0.20;;;9.10;99.90;;;;;;5117312;28;20482;-86
2022/01/04 02:49:02;;;;;;;0.80;0.50;;;9.20;99.90;;;;;;5117482;28;20809;-86
2022/01/04 02:51:28;;;;;;;0.40;0.30;;;9.20;99.90;;;;;;5117087;28;20447;-86
2022/01/04 02:53:56;;;;;;;0.30;0.20;;;9.20;99.90;;;;;;5117122;28;20466;-86
2022/01/04 02:56:23;;;;;;;0.30;0.20;;;9.20;99.90;;;;;;5117190;28;20446;-86
2022/01/04 02:58:50;;;;;;;0.40;0.40;;;9.20;99.90;;;;;;5117214;28;20457;-86
2022/01/04 03:01:16;;;;;;;0.30;0.20;;;9.20;99.90;;;;;;5117121;28;20937;-86
2022/01/04 03:03:43;;;;;;;0.30;0.30;;;9.30;99.90;;;;;;5116705;28;21000;-86
2022/01/04 03:06:13;;;;;;;0.77;0.77;;;9.30;99.90;;;;;;5116808;28;20474;-86
2022/01/04 03:08:40;;;;;;;0.30;0.30;;;9.30;99.90;;;;;;5116635;28;20431;-86
2022/01/04 03:11:09;;;;;;;0.30;0.20;;;9.30;99.90;;;;;;5116615;28;20979;-86
2022/01/04 03:13:36;;;;;;;0.40;0.30;;;9.40;99.90;;;;;;5116695;28;20463;-86
2022/01/04 03:16:02;;;;;;;0.40;0.30;;;9.40;99.90;;;;;;5116529;28;20545;-86
2022/01/04 03:18:29;;;;;;;0.30;0.30;;;9.40;99.90;;;;;;5116190;28;20807;-86
2022/01/04 03:20:56;;;;;;;0.37;0.33;;;9.50;99.90;;;;;;5116290;28;20956;-85
2022/01/04 03:23:23;;;;;;;0.50;0.30;;;9.40;99.90;;;;;;5116351;28;20467;-85
2022/01/04 03:25:49;;;;;;;0.30;0.30;;;9.40;99.90;;;;;;5115978;28;21001;-85
2022/01/04 03:28:20;;;;;;;0.30;0.20;;;9.50;99.90;;;;;;5116429;28;20435;-86
2022/01/04 03:30:47;;;;;;;0.30;0.20;;;9.40;99.90;;;;;;5116493;28;20466;-86
2022/01/04 03:33:15;;;;;;;0.30;0.30;;;9.40;99.90;;;;;;5115960;28;20466;-85
2022/01/04 03:35:41;;;;;;;0.30;0.20;;;9.40;99.90;;;;;;5116091;28;20443;-86
2022/01/04 03:38:08;;;;;;;0.30;0.20;;;9.40;99.90;;;;;;5116212;28;20451;-86
2022/01/04 03:40:35;;;;;;;0.40;0.30;;;9.40;99.90;;;;;;5115879;28;20452;-85
2022/01/04 03:43:01;;;;;;;0.40;0.30;;;9.40;99.90;;;;;;5116028;28;20474;-85
2022/01/04 03:45:29;;;;;;;0.40;0.30;;;9.40;99.90;;;;;;5115966;28;20479;-85
2022/01/04 03:47:56;;;;;;;0.40;0.30;;;9.40;99.90;;;;;;5115694;28;20450;-86
2022/01/04 03:50:23;;;;;;;0.30;0.30;;;9.40;99.90;;;;;;5115975;28;20447;-85
2022/01/04 03:52:50;;;;;;;0.30;0.30;;;9.40;99.90;;;;;;5116018;28;20680;-86
2022/01/04 03:55:16;;;;;;;0.30;0.20;;;9.40;99.90;;;;;;5115649;28;21057;-86
2022/01/04 03:57:43;;;;;;;0.30;0.27;;;9.30;99.90;;;;;;5116268;28;20455;-86
2022/01/04 04:00:11;;;;;;;0.30;0.20;;;9.30;99.90;;;;;;5115635;28;20450;-86
2022/01/04 04:02:39;;;;;;;0.30;0.30;;;9.30;99.90;;;;;;5115764;28;20831;-86
2022/01/04 04:05:07;;;;;;;0.50;0.50;;;9.40;99.90;;;;;;5115667;28;20479;-86
2022/01/04 04:07:33;;;;;;;0.43;0.43;;;9.40;99.90;;;;;;5115720;28;20454;-86
2022/01/04 04:10:00;;;;;;;1.03;0.90;;;9.40;99.90;;;;;;5115552;28;20465;-85
2022/01/04 04:12:27;;;;;;;0.30;0.20;;;9.40;99.90;;;;;;5115478;28;20474;-86
2022/01/04 04:14:53;;;;;;;0.30;0.20;;;9.40;99.90;;;;;;5115467;27;20447;-86
2022/01/04 04:17:20;;;;;;;0.30;0.20;;;9.50;99.90;;;;;;5115059;28;21011;-85
2022/01/04 04:19:48;;;;;;;0.30;0.30;;;9.40;99.90;;;;;;5115348;28;20472;-86
2022/01/04 04:22:15;;;;;;;0.30;0.20;;;9.50;99.90;;;;;;5115149;28;20471;-86
2022/01/04 04:24:42;;;;;;;0.30;0.30;;;9.40;99.90;;;;;;5115367;28;20458;-86
2022/01/04 04:27:09;;;;;;;0.30;0.20;;;9.40;99.90;;;;;;5115242;28;20446;-86
2022/01/04 04:29:35;;;;;;;0.30;0.30;;;9.40;99.90;;;;;;5115382;28;20446;-86
2022/01/04 04:32:02;;;;;;;0.30;0.20;;;9.40;99.90;;;;;;5115159;28;20443;-86
2022/01/04 04:34:29;;;;;;;0.30;0.30;;;9.30;99.90;;;;;;5114882;28;20450;-86
2022/01/04 04:36:57;;;;;;;0.30;0.30;;;9.30;99.90;;;;;;5114889;28;20930;-86
2022/01/04 04:39:24;;;;;;;0.40;0.30;;;9.30;99.90;;;;;;5115117;28;20447;-86
2022/01/04 04:41:50;;;;;;;0.30;0.30;;;9.30;99.90;;;;;;5115329;28;20449;-86
2022/01/04 04:44:17;;;;;;;0.30;0.30;;;9.30;99.90;;;;;;5114725;28;20439;-86
2022/01/04 04:46:44;;;;;;;0.60;0.40;;;9.40;99.90;;;;;;5114911;28;20490;-86
2022/01/04 04:49:11;;;;;;;0.30;0.20;;;9.40;99.90;;;;;;5115078;28;20447;-86
2022/01/04 04:51:38;;;;;;;0.30;0.30;;;9.40;99.90;;;;;;5114939;28;20447;-86
2022/01/04 04:54:07;;;;;;;0.30;0.30;;;9.40;99.90;;;;;;5114697;28;20482;-86
2022/01/04 04:56:34;;;;;;;0.30;0.20;;;9.30;99.90;;;;;;5114811;28;20435;-86
2022/01/04 04:59:01;;;;;;;0.30;0.27;;;9.30;99.90;;;;;;5114692;28;20469;-86
2022/01/04 05:01:27;;;;;;;0.30;0.30;;;9.30;99.90;;;;;;5114780;28;20443;-86
2022/01/04 05:03:54;;;;;;;0.30;0.20;;;9.30;99.90;;;;;;5114707;28;20466;-86
2022/01/04 05:06:21;;;;;;;0.30;0.30;;;9.20;99.90;;;;;;5115081;28;20875;-86
2022/01/04 05:08:48;;;;;;;0.30;0.30;;;9.30;99.90;;;;;;5114589;28;20453;-86
2022/01/04 05:11:16;;;;;;;0.30;0.30;;;9.30;99.90;;;;;;5114150;28;20939;-86
2022/01/04 05:13:42;;;;;;;0.30;0.30;;;9.30;99.90;;;;;;5116418;28;20466;-85
2022/01/04 05:16:09;;;;;;;0.30;0.30;;;9.20;99.90;;;;;;5116695;28;20466;-86
2022/01/04 05:18:36;;;;;;;0.30;0.20;;;9.20;99.90;;;;;;5118959;28;20451;-86
2022/01/04 05:21:03;;;;;;;0.30;0.20;;;9.20;99.90;;;;;;5114965;28;20447;-85
2022/01/04 05:23:30;;;;;;;1.00;0.40;;;9.20;99.90;;;;;;5114055;28;20998;-87
2022/01/04 05:25:57;;;;;;;0.30;0.20;;;9.20;99.90;;;;;;5114255;28;20842;-85
2022/01/04 05:28:25;;;;;;;0.30;0.20;;;9.20;99.90;;;;;;5114233;28;20445;-85
2022/01/04 05:30:52;;;;;;;0.30;0.20;;;9.10;99.90;;;;;;5114122;28;20450;-85
2022/01/04 05:33:18;;;;;;;0.30;0.30;;;9.10;99.90;;;;;;5114561;28;20466;-85
2022/01/04 05:35:47;;;;;;;0.30;0.30;;;9.10;99.90;;;;;;5113949;28;20439;-84
2022/01/04 05:38:14;;;;;;;0.30;0.20;;;9.10;99.90;;;;;;5113940;28;20538;-85
2022/01/04 05:40:40;;;;;;;0.30;0.20;;;9.10;99.90;;;;;;5113660;28;20451;-85
2022/01/04 05:43:07;;;;;;;0.30;0.20;;;9.10;99.90;;;;;;5113797;28;20478;-85
2022/01/04 05:45:35;;;;;;;0.30;0.20;;;9.10;99.90;;;;;;5113859;28;20486;-85
2022/01/04 05:48:02;;;;;;;0.30;0.27;;;9.10;99.90;;;;;;5113932;28;20451;-85
2022/01/04 05:50:30;;;;;;;0.30;0.20;;;9.10;99.90;;;;;;5113587;28;20436;-85
2022/01/04 05:52:57;;;;;;;0.30;0.20;;;9.10;99.90;;;;;;5113782;28;20475;-85
2022/01/04 05:55:23;;;;;;;0.30;0.30;;;9.10;99.90;;;;;;5113833;28;20446;-85
2022/01/04 05:57:50;;;;;;;1.00;0.93;;;9.10;99.90;;;;;;5113790;28;20454;-85
2022/01/04 06:00:18;;;;;;;0.40;0.30;;;9.10;99.90;;;;;;5113730;28;20813;-85
2022/01/04 06:02:46;;;;;;;0.30;0.30;;;9.00;99.90;;;;;;5113741;28;20474;-85
2022/01/04 06:05:12;;;;;;;0.30;0.30;;;9.00;99.90;;;;;;5113412;28;20950;-86
2022/01/04 06:07:39;;;;;;;0.43;0.30;;;9.00;99.90;;;;;;5113369;28;20486;-85
2022/01/04 06:10:08;;;;;;;0.43;0.43;;;9.10;99.90;;;;;;5114033;28;20455;-85
2022/01/04 06:15:20;;;;;;;0.30;0.20;;;9.10;99.90;;;;;;5113747;28;20536;-85
2022/01/04 06:17:50;;;;;;;0.30;0.30;;;9.10;99.90;;;;;;5113380;28;20438;-84
2022/01/04 06:20:19;;;;;;;0.30;0.20;;;9.10;99.90;;;;;;5113567;28;20446;-84
2022/01/04 06:22:46;;;;;;;0.30;0.20;;;9.00;99.90;;;;;;5113455;28;20899;-84
2022/01/04 06:25:14;;;;;;;0.30;0.20;;;9.10;99.90;;;;;;5113526;28;20439;-84
2022/01/04 06:27:43;;;;;;;0.30;0.20;;;9.10;99.90;;;;;;5113060;28;21005;-84
2022/01/04 06:30:10;;;;;;;0.30;0.20;;;9.10;99.90;;;;;;5113478;28;20473;-84
2022/01/04 06:32:37;;;;;;;0.30;0.20;;;9.10;99.90;;;;;;5113342;28;20474;-84
2022/01/04 06:35:06;;;;;;;0.30;0.30;;;9.10;99.90;;;;;;5113413;28;20469;-84
2022/01/04 06:37:34;;;;;;;0.30;0.20;;;9.10;99.90;;;;;;5113386;28;20443;-84
2022/01/04 06:40:01;;;;;;;0.30;0.30;;;9.20;99.90;;;;;;5113356;28;20443;-84
2022/01/04 06:42:27;;;;;;;0.30;0.30;;;9.20;99.90;;;;;;5113254;28;20470;-83
2022/01/04 06:44:54;;;;;;;0.30;0.20;;;9.20;99.90;;;;;;5113277;28;20811;-84
2022/01/04 06:47:21;;;;;;;0.30;0.20;;;9.20;99.90;;;;;;5113043;28;21012;-85
2022/01/04 06:49:48;;;;;;;0.30;0.20;;;9.30;99.90;;;;;;5113269;28;20435;-84
2022/01/04 06:52:16;;;;;;;0.30;0.30;;;9.20;99.90;;;;;;5113019;28;20475;-83
2022/01/04 06:54:42;;;;;;;0.30;0.20;;;9.30;99.90;;;;;;5116072;28;20443;-84
2022/01/04 06:57:09;;;;;;;0.30;0.30;;;9.30;99.90;;;;;;5116679;28;20927;-84
2022/01/04 06:59:36;;;;;;;0.30;0.30;;;9.30;99.90;;;;;;5116486;28;20946;-83
2022/01/04 07:02:03;;;;;;;0.40;0.37;;;9.30;99.90;;;;;;5116669;28;20455;-84
2022/01/04 07:04:30;;;;;;;0.30;0.20;;;9.30;99.90;;;;;;5116679;28;20454;-84
2022/01/04 07:06:57;;;;;;;0.30;0.30;;;9.40;99.90;;;;;;5116311;28;21020;-84
2022/01/04 07:09:25;;;;;;;0.30;0.30;;;9.40;99.90;;;;;;5116429;28;20930;-84
2022/01/04 07:11:52;;;;;;;0.30;0.30;;;9.40;99.90;;;;;;5116578;28;20458;-85
2022/01/04 07:14:19;;;;;;;0.30;0.20;;;9.40;99.90;;;;;;5116566;27;20442;-84
2022/01/04 07:16:46;;;;;;;0.30;0.30;;;9.40;99.90;;;;;;5116012;28;20482;-85
2022/01/04 07:19:15;;;;;;;0.30;0.20;;;9.40;99.90;;;;;;5116512;28;20458;-84
2022/01/04 07:21:41;;;;;;;0.30;0.20;;;9.40;99.90;;;;;;5116375;28;20444;-85
2022/01/04 07:24:08;;;;;;;0.30;0.20;;;9.50;99.90;;;;;;5116375;28;20466;-85
2022/01/04 07:26:36;;;;;;;0.30;0.20;;;9.50;99.90;;;;;;5116543;28;20478;-85
2022/01/04 07:29:03;;;;;;;0.30;0.20;;;9.50;99.90;;;;;;5116356;28;20435;-85
2022/01/04 07:31:31;;;;;;;0.30;0.20;;;9.50;99.90;;;;;;5116335;28;20451;-85
2022/01/04 07:33:57;;;;;;;0.30;0.20;;;9.60;99.90;;;;;;5116171;28;20826;-85
2022/01/04 07:36:25;;;;;;;0.30;0.20;;;9.60;99.90;;;;;;5116159;28;20439;-84
2022/01/04 07:38:52;;;;;;;0.30;0.30;;;9.60;99.90;;;;;;5116172;28;20542;-86
2022/01/04 07:41:19;;;;;;;0.30;0.20;;;9.70;99.90;;;;;;5116365;28;20451;-86
2022/01/04 07:43:47;;;;;;;0.30;0.20;;;9.70;99.90;;;;;;5115834;27;20459;-86
2022/01/04 07:46:14;;;;;;;0.30;0.20;;;9.70;99.90;;;;;;5116060;28;20486;-84
2022/01/04 07:48:40;;;;;;;0.30;0.20;;;9.70;99.90;;;;;;5116007;27;20450;-84
2022/01/04 07:51:07;;;;;;;0.30;0.20;;;9.80;99.90;;;;;;5115755;28;20938;-83
2022/01/04 07:53:34;;;;;;;0.30;0.20;;;9.80;99.90;;;;;;5116207;28;20459;-84
2022/01/04 07:56:01;;;;;;;0.30;0.20;;;9.80;99.90;;;;;;5115855;28;20793;-84
2022/01/04 07:58:29;;;;;;;0.30;0.30;;;9.90;99.90;;;;;;5115585;28;20442;-84
2022/01/04 08:00:57;;;;;;;2.20;0.80;;;9.90;99.90;;;;;;5115689;28;20567;-84
2022/01/04 08:03:24;;;;;;;0.30;0.20;;;9.90;99.90;;;;;;5115611;27;20459;-83
2022/01/04 08:05:50;;;;;;;0.30;0.20;;;9.90;99.90;;;;;;5115367;28;20462;-83
2022/01/04 08:08:17;;;;;;;0.30;0.20;;;9.90;99.90;;;;;;5115099;28;20981;-83
2022/01/04 08:10:46;;;;;;;0.30;0.30;;;9.90;99.90;;;;;;5115521;28;20470;-83
2022/01/04 08:13:13;;;;;;;0.30;0.20;;;9.90;99.90;;;;;;5115293;28;20813;-84
2022/01/04 08:15:40;;;;;;;0.30;0.20;;;9.90;99.90;;;;;;5115282;28;20482;-84
2022/01/04 08:18:08;;;;;;;0.30;0.20;;;9.90;99.90;;;;;;5115102;28;20431;-84
2022/01/04 08:20:35;;;;;;;0.30;0.30;;;9.90;99.90;;;;;;5115265;28;20443;-84
2022/01/04 08:23:02;;;;;;;0.30;0.20;;;9.90;99.90;;;;;;5114937;28;20447;-84
2022/01/04 08:25:30;;;;;;;0.30;0.20;;;9.90;99.90;;;;;;5115361;28;20470;-84
2022/01/04 08:27:57;;;;;;;0.30;0.20;;;10.00;99.90;;;;;;5117326;28;20483;-84
2022/01/04 08:30:24;;;;;;;0.30;0.20;;;10.00;99.90;;;;;;5117103;28;20938;-84
2022/01/04 08:32:53;;;;;;;0.30;0.30;;;10.00;99.90;;;;;;5114723;28;20475;-85
2022/01/04 08:35:22;;;;;;;0.30;0.20;;;9.90;99.90;;;;;;5115128;28;20451;-83
2022/01/04 08:37:49;;;;;;;0.30;0.20;;;10.00;99.90;;;;;;5115038;28;20539;-83
2022/01/04 08:40:15;;;;;;;0.30;0.20;;;10.00;99.90;;;;;;5114808;28;20451;-84
2022/01/04 08:42:42;;;;;;;0.30;0.20;;;10.10;99.90;;;;;;5114441;28;21120;-83
2022/01/04 08:45:10;;;;;;;0.30;0.20;;;10.10;99.90;;;;;;5114631;28;20443;-84
2022/01/04 08:47:37;;;;;;;0.30;0.20;;;10.10;99.90;;;;;;5114772;27;20478;-83
2022/01/04 08:50:07;;;;;;;0.40;0.40;;;10.10;99.90;;;;;;5114869;28;20439;-83
2022/01/04 08:52:35;;;;;;;0.30;0.20;;;10.10;99.90;;;;;;5116847;28;20467;-83
2022/01/04 08:55:03;;;;;;;0.30;0.20;;;10.10;99.90;;;;;;5114346;28;20961;-83
2022/01/04 08:57:30;;;;;;;0.30;0.20;;;10.10;99.90;;;;;;5114533;28;20450;-82
2022/01/04 08:59:57;;;;;;;0.30;0.20;;;10.10;99.90;;;;;;5114521;28;20841;-83
2022/01/04 09:02:24;;;;;;;0.30;0.30;;;10.10;99.90;;;;;;5114411;28;20474;-84
2022/01/04 09:04:51;;;;;;;0.30;0.30;;;10.20;99.90;;;;;;5114515;28;20439;-83
2022/01/04 09:07:19;;;;;;;0.30;0.20;;;10.20;99.90;;;;;;5114282;28;20479;-83
2022/01/04 09:09:47;;;;;;;0.30;0.20;;;10.20;99.90;;;;;;5114379;28;20454;-83
2022/01/04 09:12:14;;;;;;;0.30;0.20;;;10.20;99.90;;;;;;5114255;27;20473;-83
2022/01/04 09:14:54;;;;;;;0.30;0.20;;;10.20;99.90;;;;;;5114578;28;20447;-82
2022/01/04 09:20:09;;;;;;;0.30;0.20;;;10.10;99.90;;;;;;5114485;28;20419;-82
2022/01/04 09:22:37;;;;;;;0.30;0.30;;;10.10;99.90;;;;;;5114148;28;20466;-83
2022/01/04 09:25:06;;;;;;;0.30;0.20;;;10.10;99.90;;;;;;5114140;28;20451;-82
2022/01/04 09:27:33;;;;;;;0.30;0.30;;;10.20;99.90;;;;;;5113961;28;20490;-82
2022/01/04 09:30:03;;;;;;;0.30;0.20;;;10.20;99.90;;;;;;5114152;28;20451;-83
2022/01/04 09:32:31;;;;;;;0.30;0.20;;;10.20;99.90;;;;;;5113986;28;20553;-83
2022/01/04 09:34:57;;;;;;;0.30;0.20;;;10.20;99.90;;;;;;5113991;28;20867;-83
2022/01/04 09:37:24;;;;;;;0.30;0.20;;;10.20;99.90;;;;;;5114073;28;20430;-83
2022/01/04 09:39:51;;;;;;;0.30;0.27;;;10.20;99.90;;;;;;5113933;28;20488;-83
2022/01/04 09:42:21;;;;;;;0.30;0.30;;;10.10;99.90;;;;;;5113575;28;21017;-83
2022/01/04 09:44:49;;;;;;;0.30;0.20;;;10.10;99.90;;;;;;5113871;28;20447;-83
2022/01/04 09:47:16;;;;;;;0.30;0.20;;;10.10;99.90;;;;;;5113794;28;20466;-83
2022/01/04 09:49:42;;;;;;;0.30;0.20;;;10.20;99.90;;;;;;5113840;28;20443;-83
2022/01/04 09:52:10;;;;;;;0.30;0.30;;;10.20;99.90;;;;;;5113701;28;20812;-83
2022/01/04 09:54:39;;;;;;;0.30;0.20;;;10.20;99.90;;;;;;5113893;28;20451;-84
2022/01/04 09:57:05;;;;;;;0.30;0.23;;;10.20;99.90;;;;;;5113798;28;20864;-83
2022/01/04 09:59:34;;;;;;;0.30;0.20;;;10.20;99.90;;;;;;5113715;28;20447;-83
2022/01/04 10:02:12;;;;;;;0.30;0.30;;;10.20;99.90;;;;;;5113763;28;20443;-83
2022/01/04 10:04:39;;;;;;;0.30;0.20;;;10.20;99.90;;;;;;5113484;28;20906;-84
2022/01/04 10:07:08;;;;;;;0.40;0.40;;;10.10;99.90;;;;;;5113627;28;20478;-85
2022/01/04 10:09:41;;;;;;;0.30;0.20;;;10.20;99.90;;;;;;5113725;28;20500;-84
2022/01/04 10:12:10;;;;;;;0.30;0.30;;;10.20;99.90;;;;;;5113630;28;20427;-84
2022/01/04 10:14:41;;;;;;;0.90;0.77;;;10.20;99.90;;;;;;5113674;28;20453;-85
2022/01/04 10:17:09;;;;;;;0.30;0.20;;;10.20;99.90;;;;;;5113458;28;20483;-85
2022/01/04 10:19:38;;;;;;;0.30;0.20;;;10.20;99.90;;;;;;5113386;28;20443;-84
2022/01/04 10:22:20;;;;;;;0.30;0.20;;;10.20;99.90;;;;;;5113549;28;20442;-84
2022/01/04 10:24:48;;;;;;;0.30;0.30;;;10.20;99.90;;;;;;5113642;28;20431;-84
2022/01/04 10:27:29;;;;;;;0.30;0.30;;;10.30;99.90;;;;;;5114174;28;20886;-84
2022/01/04 10:30:27;;;;;;;1.33;0.60;;;10.40;99.90;;;;;;5117783;28;20431;-85
2022/01/04 10:32:59;;;;;;;0.30;0.20;;;10.40;99.90;;;;;;5117390;28;20466;-85
2022/01/04 10:35:29;;;;;;;0.30;0.30;;;10.40;99.90;;;;;;5117647;28;20439;-85
2022/01/04 10:37:58;;;;;;;0.33;0.30;;;10.40;99.90;;;;;;5117428;28;20434;-84
2022/01/04 10:40:26;;;;;;;0.30;0.20;;;10.40;99.90;;;;;;5117531;28;20450;-85
2022/01/04 10:42:53;;;;;;;0.30;0.30;;;10.40;99.90;;;;;;5117183;28;20498;-84
2022/01/04 10:45:28;;;;;;;0.47;0.27;;;10.30;99.90;;;;;;5116943;28;20910;-85
2022/01/04 10:47:57;;;;;;;0.53;0.50;;;10.30;99.90;;;;;;5116768;28;21050;-84
2022/01/04 10:50:32;;;;;;;0.30;0.30;;;10.30;99.90;;;;;;5117122;28;21025;-84
2022/01/04 10:53:00;;;;;;;0.30;0.20;;;10.40;99.90;;;;;;5116975;28;20463;-84
2022/01/04 10:55:32;;;;;;;0.30;0.20;;;10.30;99.90;;;;;;5117026;28;20496;-84
2022/01/04 10:57:58;;;;;;;0.40;0.37;;;10.30;99.90;;;;;;5116937;27;20426;-84
2022/01/04 11:00:28;;;;;;;0.80;0.33;;;10.30;99.90;;;;;;5116529;28;20934;-84
2022/01/04 11:02:57;;;;;;;0.50;0.30;;;10.30;99.90;;;;;;5116876;28;21075;-85
2022/01/04 11:05:25;;;;;;;0.30;0.20;;;10.30;99.90;;;;;;5116825;28;20807;-85
2022/01/04 11:07:59;;;;;;;0.30;0.30;;;10.20;99.90;;;;;;5116513;28;20480;-84
2022/01/04 11:10:28;;;;;;;0.30;0.30;;;10.30;99.90;;;;;;5116787;28;20457;-85
2022/01/04 11:12:56;;;;;;;0.80;0.30;;;10.40;99.90;;;;;;5116303;28;21056;-84
2022/01/04 11:15:23;;;;;;;0.30;0.27;;;10.40;99.90;;;;;;5116384;28;20498;-84
2022/01/04 11:17:51;;;;;;;0.30;0.30;;;10.40;99.90;;;;;;5116576;28;20423;-84
2022/01/04 11:20:18;;;;;;;0.30;0.30;;;10.40;99.90;;;;;;5116523;28;20446;-84
2022/01/04 11:22:47;;;;;;;0.30;0.20;;;10.40;99.90;;;;;;5116777;28;20467;-84
2022/01/04 11:25:17;;;;;;;0.30;0.20;;;10.40;99.90;;;;;;5116731;28;20451;-84
2022/01/04 11:27:44;;;;;;;0.30;0.30;;;10.40;99.90;;;;;;5116350;28;20485;-84
2022/01/04 11:30:17;;;;;;;0.30;0.30;;;10.30;99.90;;;;;;5116399;28;20451;-83
2022/01/04 11:32:49;;;;;;;0.30;0.20;;;10.40;99.90;;;;;;5116291;28;20537;-84
2022/01/04 11:35:21;;;;;;;0.30;0.20;;;10.50;99.90;;;;;;5116513;28;20416;-84
2022/01/04 11:37:52;;;;;;;0.30;0.30;;;10.40;99.90;;;;;;5116609;28;20439;-84
2022/01/04 11:40:27;;;;;;;0.30;0.30;;;10.40;99.90;;;;;;5117241;28;20442;-84
2022/01/04 11:42:55;;;;;;;0.30;0.30;;;10.40;99.90;;;;;;5116200;28;20475;-83
2022/01/04 11:45:44;;;;;;;0.30;0.20;;;10.30;99.90;;;;;;5116350;28;20458;-84
2022/01/04 11:48:33;;;;;;;0.30;0.20;;;10.40;99.90;;;;;;5116140;28;20475;-85
2022/01/04 11:51:03;;;;;;;0.30;0.20;;;10.30;99.90;;;;;;5115993;28;20427;-84
2022/01/04 11:53:30;;;;;;;0.40;0.30;;;10.30;99.90;;;;;;5115858;28;20982;-84
2022/01/04 11:56:00;;;;;;;0.40;0.40;;;10.30;99.90;;;;;;5115746;28;20462;-84
2022/01/04 11:58:41;;;;;;;0.30;0.20;;;10.30;99.90;;;;;;5115646;28;20454;-84
2022/01/04 12:01:08;;;;;;;0.30;0.30;;;10.30;99.90;;;;;;5115700;28;20431;-84
2022/01/04 12:03:40;;;;;;;0.40;0.40;;;10.30;99.90;;;;;;5115410;27;20459;-84
2022/01/04 12:06:09;;;;;;;0.30;0.23;;;10.30;99.90;;;;;;5115557;27;20438;-84
2022/01/04 12:08:39;;;;;;;0.30;0.20;;;10.30;99.90;;;;;;5115491;28;20831;-84
2022/01/04 12:11:21;;;;;;;0.40;0.40;;;10.30;99.90;;;;;;5115505;28;20463;-80
2022/01/04 12:13:51;;;;;;;0.30;0.30;;;10.20;99.90;;;;;;5115409;28;20475;-82
2022/01/04 12:16:31;;;;;;;0.30;0.30;;;10.30;99.90;;;;;;5114796;28;20488;-82
2022/01/04 12:18:58;;;;;;;0.30;0.30;;;10.30;99.90;;;;;;5115299;28;20442;-85
2022/01/04 12:21:39;;;;;;;0.40;0.40;;;10.30;99.90;;;;;;5115516;28;20442;-84
2022/01/04 12:24:07;;;;;;;0.30;0.20;;;10.30;99.90;;;;;;5114862;28;20470;-83
2022/01/04 12:26:35;;;;;;;0.50;0.50;;;10.20;99.90;;;;;;5115173;28;20412;-83
2022/01/04 12:29:22;;;;;;;0.30;0.27;;;10.20;99.90;;;;;;5115041;28;20478;-84
2022/01/04 12:31:51;;;;;;;0.30;0.27;;;10.20;99.90;;;;;;5114699;28;20443;-83
2022/01/04 12:34:57;;;;;;;0.30;0.30;;;10.20;99.90;;;;;;5115035;28;20466;-84
2022/01/04 12:37:26;;;;;;;2.77;0.70;;;10.20;99.90;;;;;;5052949;28;20476;-83
2022/01/04 12:39:57;;;;;;;0.30;0.20;;;10.20;99.90;;;;;;5105033;28;20462;-83
2022/01/04 12:42:24;;;;;;;0.30;0.30;;;10.20;99.90;;;;;;5114835;28;20467;-83
2022/01/04 12:44:58;;;;;;;2.20;0.40;;;10.20;99.90;;;;;;5114783;28;20426;-83
2022/01/04 12:47:25;;;;;;;0.30;0.30;;;10.20;99.90;;;;;;5114698;28;20428;-83
2022/01/04 12:49:53;;;;;;;0.30;0.30;;;10.10;99.90;;;;;;5114658;28;20439;-83
2022/01/04 12:52:21;;;;;;;0.40;0.30;;;10.20;99.90;;;;;;5114347;28;20465;-83
2022/01/04 12:54:50;;;;;;;0.40;0.30;;;10.20;99.90;;;;;;5114336;28;20427;-83
2022/01/04 12:57:18;;;;;;;0.30;0.30;;;10.20;99.90;;;;;;5114536;28;20522;-84
2022/01/04 12:59:47;;;;;;;0.30;0.30;;;10.20;99.90;;;;;;5114273;28;20451;-84
2022/01/04 13:02:23;;;;;;;0.30;0.30;;;10.20;99.90;;;;;;5114392;28;20440;-84
2022/01/04 13:04:52;;;;;;;0.40;0.30;;;10.20;99.90;;;;;;5114156;28;20435;-84
2022/01/04 13:07:22;;;;;;;0.30;0.30;;;10.20;99.90;;;;;;5114609;28;20501;-83